Time;durP1;ratioP1;P1;durP2;ratioP2;P2;SDS_P1;SDS_P2;PMS_P1;PMS_P2;Temp;Humidity;BMP_temperature;BMP_pressure;BME280_temperature;BME280_humidity;BME280_pressure;Samples;Min_cycle;Max_cycle;Signal;HPM_P1;HPM_P2
2021/04/18 00:00:22;;;;;;;3.17;2.80;;;8.80;99.90;;;;;;5054406;28;20818;-75
2021/04/18 00:02:51;;;;;;;3.53;3.23;;;8.60;99.90;;;;;;5051331;28;20479;-77
2021/04/18 00:05:22;;;;;;;3.60;3.30;;;8.60;99.90;;;;;;5058442;28;20524;-75
2021/04/18 00:07:49;;;;;;;4.00;3.60;;;8.60;99.90;;;;;;5050742;28;20896;-77
2021/04/18 00:10:17;;;;;;;5.67;4.07;;;8.60;99.90;;;;;;5054235;28;20468;-77
2021/04/18 00:12:45;;;;;;;3.93;3.53;;;8.50;99.90;;;;;;5053745;28;20545;-77
2021/04/18 00:15:14;;;;;;;4.93;3.70;;;8.40;99.90;;;;;;5057931;28;20481;-78
2021/04/18 00:17:42;;;;;;;3.57;3.27;;;8.30;99.90;;;;;;5054936;28;20453;-77
2021/04/18 00:20:11;;;;;;;4.67;3.27;;;8.40;99.90;;;;;;5054710;28;20474;-76
2021/04/18 00:22:39;;;;;;;3.73;3.40;;;8.40;99.90;;;;;;5055151;28;20468;-79
2021/04/18 00:25:08;;;;;;;3.70;3.40;;;8.50;99.90;;;;;;5049906;28;20574;-78
2021/04/18 00:27:36;;;;;;;3.67;3.30;;;8.40;99.90;;;;;;5055178;28;21016;-77
2021/04/18 00:30:05;;;;;;;3.97;3.53;;;8.30;99.90;;;;;;5054774;28;20484;-78
2021/04/18 00:32:32;;;;;;;6.93;4.50;;;8.30;99.90;;;;;;5045875;28;20471;-77
2021/04/18 00:35:00;;;;;;;4.37;3.40;;;8.40;99.90;;;;;;5055672;28;20486;-78
2021/04/18 00:37:27;;;;;;;5.00;4.50;;;8.30;99.90;;;;;;5037535;28;21025;-79
2021/04/18 00:39:55;;;;;;;4.20;3.80;;;8.60;99.90;;;;;;5053772;28;20460;-77
2021/04/18 00:42:22;;;;;;;4.43;4.00;;;8.40;99.90;;;;;;5055495;28;20474;-78
2021/04/18 00:44:50;;;;;;;4.40;4.00;;;8.40;99.90;;;;;;5054347;28;20481;-79
2021/04/18 00:47:18;;;;;;;5.10;4.53;;;8.40;99.90;;;;;;5053838;28;20459;-78
2021/04/18 00:49:45;;;;;;;7.53;6.27;;;8.30;99.90;;;;;;5047820;28;20482;-77
2021/04/18 00:52:13;;;;;;;4.00;3.63;;;8.30;99.90;;;;;;5047451;28;20521;-79
2021/04/18 00:54:40;;;;;;;5.67;3.87;;;8.20;99.90;;;;;;5047847;28;20996;-77
2021/04/18 00:57:08;;;;;;;3.83;3.40;;;8.30;99.90;;;;;;5047113;28;20467;-77
2021/04/18 00:59:35;;;;;;;4.50;4.10;;;8.40;99.90;;;;;;5049228;28;20469;-78
2021/04/18 01:02:03;;;;;;;5.43;4.27;;;8.40;99.90;;;;;;5056479;28;21214;-79
2021/04/18 01:04:30;;;;;;;5.43;3.73;;;8.40;99.90;;;;;;5048685;28;20579;-77
2021/04/18 01:06:57;;;;;;;3.60;3.30;;;8.30;99.90;;;;;;5056164;28;21010;-77
2021/04/18 01:09:25;;;;;;;3.77;3.40;;;8.30;99.90;;;;;;5051232;28;20487;-79
2021/04/18 01:11:52;;;;;;;5.50;4.00;;;8.30;99.90;;;;;;5056792;28;20450;-77
2021/04/18 01:14:20;;;;;;;3.70;3.40;;;8.30;99.90;;;;;;5045250;28;20491;-78
2021/04/18 01:16:47;;;;;;;4.03;3.30;;;8.20;99.90;;;;;;5056693;28;21278;-79
2021/04/18 01:19:14;;;;;;;3.97;3.40;;;8.20;99.90;;;;;;5045033;28;20889;-79
2021/04/18 01:21:43;;;;;;;3.80;3.53;;;8.20;99.90;;;;;;5049886;28;20469;-77
2021/04/18 01:24:10;;;;;;;4.40;3.67;;;8.20;99.90;;;;;;5051149;28;20487;-76
2021/04/18 01:26:38;;;;;;;3.30;3.00;;;8.20;99.90;;;;;;5057209;28;20855;-76
2021/04/18 01:29:05;;;;;;;4.57;4.17;;;8.30;99.90;;;;;;5050432;28;20537;-78
2021/04/18 01:31:33;;;;;;;5.03;3.70;;;8.20;99.90;;;;;;5060095;28;20594;-77
2021/04/18 01:34:00;;;;;;;4.70;4.13;;;8.10;99.90;;;;;;5051709;28;20500;-79
2021/04/18 01:36:28;;;;;;;5.90;3.93;;;8.00;99.90;;;;;;5054921;28;20537;-78
2021/04/18 01:38:56;;;;;;;4.67;3.67;;;8.20;99.90;;;;;;5054620;28;20464;-77
2021/04/18 01:41:23;;;;;;;3.63;3.30;;;8.00;99.90;;;;;;5053234;28;20476;-79
2021/04/18 01:43:50;;;;;;;3.70;3.40;;;8.10;99.90;;;;;;5050783;28;20497;-79
2021/04/18 01:46:18;;;;;;;4.20;3.80;;;8.10;99.90;;;;;;5052776;28;20467;-78
2021/04/18 01:48:45;;;;;;;4.00;3.57;;;8.20;99.90;;;;;;5039610;28;20483;-76
2021/04/18 01:51:12;;;;;;;4.23;3.93;;;8.10;99.90;;;;;;5051145;28;20524;-78
2021/04/18 01:53:39;;;;;;;4.10;3.70;;;8.00;99.90;;;;;;5050394;28;21041;-75
2021/04/18 01:56:08;;;;;;;4.30;4.00;;;8.00;99.90;;;;;;5058486;28;20447;-77
2021/04/18 01:58:35;;;;;;;3.90;3.50;;;8.00;99.90;;;;;;5054704;28;20459;-77
2021/04/18 02:01:03;;;;;;;3.60;3.30;;;8.00;99.90;;;;;;5046347;28;21036;-79
2021/04/18 02:03:30;;;;;;;3.63;3.27;;;8.10;99.90;;;;;;5050785;28;20546;-78
2021/04/18 02:05:57;;;;;;;4.93;4.53;;;8.00;99.90;;;;;;5052901;28;20458;-74
2021/04/18 02:08:25;;;;;;;4.33;3.90;;;8.00;99.90;;;;;;5044169;28;20490;-75
2021/04/18 02:10:52;;;;;;;5.00;4.60;;;8.00;99.90;;;;;;5044101;28;20475;-77
2021/04/18 02:13:20;;;;;;;4.93;4.03;;;7.90;99.90;;;;;;5051803;28;20485;-78
2021/04/18 02:15:47;;;;;;;4.93;4.40;;;7.90;99.90;;;;;;5045848;28;20471;-77
2021/04/18 02:18:14;;;;;;;4.53;4.07;;;7.80;99.90;;;;;;5054637;28;20469;-76
2021/04/18 02:20:41;;;;;;;4.10;3.80;;;8.00;99.90;;;;;;5052180;28;20464;-78
2021/04/18 02:23:09;;;;;;;4.50;4.20;;;8.00;99.90;;;;;;5056518;28;20454;-77
2021/04/18 02:25:36;;;;;;;5.13;4.40;;;7.90;99.90;;;;;;5055099;28;20471;-76
2021/04/18 02:28:04;;;;;;;4.53;3.87;;;7.80;99.90;;;;;;5053732;28;20491;-77
2021/04/18 02:30:32;;;;;;;4.77;3.87;;;7.80;99.90;;;;;;5053329;28;20475;-77
2021/04/18 02:32:59;;;;;;;4.47;4.07;;;7.90;99.90;;;;;;5050699;28;20463;-78
2021/04/18 02:35:28;;;;;;;5.17;4.77;;;7.90;99.90;;;;;;5056510;28;20472;-76
2021/04/18 02:37:55;;;;;;;4.17;3.87;;;7.80;99.90;;;;;;5056721;28;21065;-78
2021/04/18 02:40:23;;;;;;;4.60;4.20;;;7.90;99.90;;;;;;5046941;28;20814;-78
2021/04/18 02:42:50;;;;;;;4.90;4.50;;;8.20;99.90;;;;;;5051981;28;20986;-78
2021/04/18 02:45:17;;;;;;;6.90;5.00;;;8.10;99.90;;;;;;5055413;28;20456;-79
2021/04/18 02:47:45;;;;;;;8.93;5.00;;;7.80;99.90;;;;;;5051366;28;20464;-79
2021/04/18 02:50:14;;;;;;;4.90;4.40;;;7.80;99.90;;;;;;5050452;28;20542;-79
2021/04/18 02:52:41;;;;;;;4.57;3.93;;;7.90;99.90;;;;;;5048537;28;20553;-79
2021/04/18 02:55:09;;;;;;;5.20;4.80;;;7.90;99.90;;;;;;5053432;28;20480;-78
2021/04/18 02:57:36;;;;;;;7.87;4.97;;;7.90;99.90;;;;;;5058080;28;20468;-79
2021/04/18 03:00:05;;;;;;;6.30;4.97;;;7.80;99.90;;;;;;5048689;28;20802;-76
2021/04/18 03:02:32;;;;;;;4.97;4.40;;;7.80;99.90;;;;;;5065822;28;20446;-77
2021/04/18 03:05:00;;;;;;;6.77;4.70;;;7.90;99.90;;;;;;5053531;28;20474;-79
2021/04/18 03:07:27;;;;;;;4.70;4.20;;;7.90;99.90;;;;;;5043776;28;20471;-78
2021/04/18 03:09:54;;;;;;;5.93;5.00;;;7.90;99.90;;;;;;5046419;28;22382;-77
2021/04/18 03:12:21;;;;;;;4.23;3.83;;;8.00;99.90;;;;;;5049808;28;20471;-78
2021/04/18 03:14:49;;;;;;;7.20;4.93;;;7.90;99.90;;;;;;5052163;28;20482;-79
2021/04/18 03:17:16;;;;;;;5.57;4.70;;;7.80;99.90;;;;;;5046178;28;20512;-80
2021/04/18 03:19:43;;;;;;;6.93;5.07;;;7.90;99.90;;;;;;5052895;28;20533;-79
2021/04/18 03:22:13;;;;;;;5.10;4.60;;;7.90;99.90;;;;;;5055311;28;21068;-76
2021/04/18 03:24:40;;;;;;;5.57;4.87;;;7.90;99.90;;;;;;5052797;28;20479;-78
2021/04/18 03:27:08;;;;;;;4.93;4.53;;;7.80;99.90;;;;;;5042895;28;20513;-76
2021/04/18 03:29:35;;;;;;;5.20;4.80;;;7.80;99.90;;;;;;5057476;28;20478;-78
2021/04/18 03:32:03;;;;;;;5.80;5.20;;;7.80;99.90;;;;;;5061903;28;20559;-78
2021/04/18 03:34:30;;;;;;;6.07;5.40;;;7.80;99.90;;;;;;5045458;28;20533;-76
2021/04/18 03:36:57;;;;;;;5.30;4.67;;;7.70;99.90;;;;;;5047994;28;20469;-78
2021/04/18 03:39:25;;;;;;;6.23;5.60;;;7.70;99.90;;;;;;5058408;28;20450;-79
2021/04/18 03:41:53;;;;;;;4.73;4.43;;;7.70;99.90;;;;;;5053323;28;20464;-79
2021/04/18 03:44:20;;;;;;;6.13;5.30;;;7.70;99.90;;;;;;5054296;28;20548;-78
2021/04/18 03:46:47;;;;;;;5.33;4.87;;;7.70;99.90;;;;;;5047863;28;20455;-77
2021/04/18 03:49:14;;;;;;;9.90;7.23;;;7.70;99.90;;;;;;5061979;28;20489;-79
2021/04/18 03:51:46;;;;;;;6.97;4.63;;;7.70;99.90;;;;;;5042516;28;20572;-78
2021/04/18 03:54:14;;;;;;;5.27;4.77;;;7.60;99.90;;;;;;5062662;28;21043;-78
2021/04/18 03:56:42;;;;;;;5.90;5.40;;;7.60;99.90;;;;;;5052427;28;20454;-77
2021/04/18 03:59:10;;;;;;;5.97;5.43;;;7.60;99.90;;;;;;5052276;28;20468;-77
2021/04/18 04:01:37;;;;;;;5.33;4.90;;;7.70;99.90;;;;;;5052271;28;20470;-78
2021/04/18 04:04:04;;;;;;;6.50;6.00;;;7.70;99.90;;;;;;5057276;28;21280;-75
2021/04/18 04:06:32;;;;;;;5.53;5.03;;;7.70;99.90;;;;;;5046429;28;20478;-77
2021/04/18 04:09:00;;;;;;;5.97;5.10;;;7.70;99.90;;;;;;5053282;28;20483;-77
2021/04/18 04:11:27;;;;;;;5.60;5.10;;;7.60;99.90;;;;;;5053126;28;20472;-78
2021/04/18 04:13:55;;;;;;;7.90;5.27;;;7.60;99.90;;;;;;5057366;28;20575;-77
2021/04/18 04:16:22;;;;;;;8.00;5.23;;;7.50;99.90;;;;;;5044613;28;20755;-77
2021/04/18 04:18:50;;;;;;;7.30;5.33;;;7.70;99.90;;;;;;5050034;28;20471;-77
2021/04/18 04:21:17;;;;;;;6.40;5.20;;;7.70;99.90;;;;;;5059404;28;20540;-75
2021/04/18 04:23:44;;;;;;;7.20;6.50;;;7.70;99.90;;;;;;5044390;28;20482;-78
2021/04/18 04:26:12;;;;;;;5.73;5.20;;;7.80;99.90;;;;;;5041563;28;20467;-77
2021/04/18 04:28:39;;;;;;;6.53;5.93;;;7.80;99.90;;;;;;5042957;28;21056;-77
2021/04/18 04:31:07;;;;;;;6.00;5.40;;;7.80;99.90;;;;;;5044833;28;20454;-76
2021/04/18 04:33:35;;;;;;;7.93;5.13;;;8.00;99.90;;;;;;5042847;28;20508;-77
2021/04/18 04:36:04;;;;;;;7.23;6.43;;;7.70;99.90;;;;;;5045040;28;21379;-79
2021/04/18 04:38:31;;;;;;;6.13;5.63;;;7.60;99.90;;;;;;5047409;28;20466;-80
2021/04/18 04:40:59;;;;;;;6.13;5.63;;;7.60;99.90;;;;;;5042877;28;20468;-79
2021/04/18 04:43:26;;;;;;;5.77;5.33;;;7.50;99.90;;;;;;5042760;28;20487;-77
2021/04/18 04:45:53;;;;;;;6.87;6.20;;;7.60;99.90;;;;;;5045877;28;20459;-80
2021/04/18 04:48:22;;;;;;;8.67;5.97;;;7.70;99.90;;;;;;5049974;28;20747;-76
2021/04/18 04:50:49;;;;;;;6.10;5.50;;;7.70;99.90;;;;;;5044740;28;20979;-79
2021/04/18 04:53:17;;;;;;;5.53;5.10;;;7.70;99.90;;;;;;5043335;28;20479;-77
2021/04/18 04:55:46;;;;;;;6.80;6.13;;;7.90;99.90;;;;;;5045614;28;20515;-79
2021/04/18 04:58:14;;;;;;;6.57;6.03;;;7.70;99.90;;;;;;5043541;28;20475;-79
2021/04/18 05:00:41;;;;;;;7.00;5.87;;;7.60;99.90;;;;;;5046292;28;20461;-78
2021/04/18 05:03:09;;;;;;;7.43;6.33;;;7.80;99.90;;;;;;5044266;28;21356;-79
2021/04/18 05:05:37;;;;;;;6.80;6.20;;;7.60;99.90;;;;;;5041141;28;20504;-78
2021/04/18 05:08:05;;;;;;;6.63;6.00;;;7.60;99.90;;;;;;5059555;28;20507;-76
2021/04/18 05:10:32;;;;;;;6.53;5.83;;;7.60;99.90;;;;;;5037728;28;20489;-78
2021/04/18 05:13:00;;;;;;;7.33;6.53;;;7.60;99.90;;;;;;5043313;28;20473;-78
2021/04/18 05:15:27;;;;;;;6.50;5.90;;;7.70;99.90;;;;;;5045915;28;20466;-77
2021/04/18 05:17:54;;;;;;;6.67;6.07;;;7.60;99.90;;;;;;5041541;28;20758;-77
2021/04/18 05:20:22;;;;;;;7.03;6.30;;;7.50;1.00;;;;;;5045617;28;20551;-79
2021/04/18 05:22:50;;;;;;;6.57;5.97;;;7.60;1.00;;;;;;5043297;28;20476;-77
2021/04/18 05:25:17;;;;;;;5.60;5.10;;;7.60;1.00;;;;;;5043677;28;20523;-78
2021/04/18 05:27:44;;;;;;;7.67;6.10;;;7.60;1.00;;;;;;5045699;28;20558;-79
2021/04/18 05:30:12;;;;;;;7.47;6.77;;;7.80;1.00;;;;;;5043145;28;20499;-78
2021/04/18 05:32:40;;;;;;;8.93;6.37;;;7.70;99.90;;;;;;5047146;28;20512;-79
2021/04/18 05:35:10;;;;;;;7.70;6.80;;;7.60;1.00;;;;;;5048031;28;20492;-81
2021/04/18 05:37:37;;;;;;;8.20;7.40;;;7.70;99.90;;;;;;5046533;28;20466;-79
2021/04/18 05:40:07;;;;;;;7.03;6.33;;;7.70;99.90;;;;;;5041628;28;20459;-78
2021/04/18 05:42:34;;;;;;;7.47;6.77;;;7.70;1.00;;;;;;5043246;28;20470;-77
2021/04/18 05:45:01;;;;;;;8.43;6.80;;;7.70;1.00;;;;;;5041023;28;21031;-76
2021/04/18 05:47:28;;;;;;;6.40;5.83;;;7.80;1.00;;;;;;5043142;28;20496;-76
2021/04/18 05:49:56;;;;;;;9.57;6.83;;;7.90;99.90;;;;;;5050227;28;20524;-77
2021/04/18 05:52:23;;;;;;;8.40;7.50;;;7.90;99.90;;;;;;5040596;28;20593;-78
2021/04/18 05:54:51;;;;;;;7.40;6.70;;;7.90;99.90;;;;;;5041594;28;20232;-77
2021/04/18 05:57:19;;;;;;;7.70;6.67;;;8.00;99.90;;;;;;5041859;28;20966;-78
2021/04/18 05:59:47;;;;;;;6.57;5.93;;;7.90;99.90;;;;;;5040671;28;20470;-79
2021/04/18 06:02:14;;;;;;;6.53;5.73;;;7.90;99.90;;;;;;5040456;28;20471;-79
2021/04/18 06:04:42;;;;;;;7.73;6.97;;;7.90;99.90;;;;;;5042062;28;20480;-76
2021/04/18 06:07:10;;;;;;;6.93;6.17;;;8.10;99.90;;;;;;5033696;28;20470;-75
2021/04/18 06:09:37;;;;;;;7.40;6.00;;;7.90;99.90;;;;;;5040941;28;20477;-77
2021/04/18 06:12:05;;;;;;;9.63;7.47;;;7.80;99.90;;;;;;5047111;28;20471;-77
2021/04/18 06:14:33;;;;;;;7.97;7.00;;;7.90;99.90;;;;;;5061078;28;20474;-79
2021/04/18 06:17:00;;;;;;;9.60;7.33;;;7.90;99.90;;;;;;5048939;28;20468;-75
2021/04/18 06:19:27;;;;;;;7.43;5.70;;;7.90;99.90;;;;;;5043802;28;20491;-76
2021/04/18 06:21:56;;;;;;;6.90;6.20;;;7.80;99.90;;;;;;5026556;28;20819;-76
2021/04/18 06:24:23;;;;;;;8.50;7.60;;;7.80;99.90;;;;;;5027804;28;20492;-78
2021/04/18 06:26:50;;;;;;;7.10;6.40;;;7.80;99.90;;;;;;5038870;28;20538;-77
2021/04/18 06:29:17;;;;;;;8.80;6.87;;;8.00;99.90;;;;;;5043784;28;21026;-77
2021/04/18 06:31:46;;;;;;;11.47;10.47;;;7.90;99.90;;;;;;5040157;28;20477;-76
2021/04/18 06:34:14;;;;;;;8.97;8.10;;;8.00;99.90;;;;;;5046395;28;20514;-78
2021/04/18 06:36:41;;;;;;;7.80;6.50;;;8.00;99.90;;;;;;5035759;28;20483;-77
2021/04/18 06:39:08;;;;;;;8.30;7.20;;;8.00;99.90;;;;;;5044534;28;20553;-76
2021/04/18 06:41:36;;;;;;;8.30;6.30;;;8.00;99.90;;;;;;5028993;28;20465;-79
2021/04/18 06:44:04;;;;;;;6.53;5.80;;;8.10;99.90;;;;;;5036939;28;20544;-76
2021/04/18 06:46:32;;;;;;;6.77;6.17;;;8.10;99.90;;;;;;5027591;28;20469;-77
2021/04/18 06:49:01;;;;;;;8.00;7.20;;;8.20;99.90;;;;;;5029863;28;20490;-74
2021/04/18 06:51:29;;;;;;;7.10;6.17;;;8.20;99.90;;;;;;5027161;28;20460;-76
2021/04/18 06:53:56;;;;;;;8.40;6.07;;;8.20;99.90;;;;;;5028628;28;20487;-78
2021/04/18 06:56:23;;;;;;;8.95;8.15;;;8.20;99.90;;;;;;5029336;28;20459;-78
2021/04/18 06:58:57;;;;;;;7.43;6.73;;;8.00;99.90;;;;;;5037356;28;20195;-77
2021/04/18 07:01:25;;;;;;;6.27;5.67;;;8.10;99.90;;;;;;5032075;28;20470;-77
2021/04/18 07:04:08;;;;;;;6.97;6.03;;;8.10;99.90;;;;;;5044057;28;21073;-77
2021/04/18 07:06:39;;;;;;;7.10;6.40;;;8.10;99.90;;;;;;5046129;28;20475;-76
2021/04/18 07:09:07;;;;;;;6.67;5.83;;;8.10;99.90;;;;;;5043767;28;20490;-77
2021/04/18 07:11:48;;;;;;;8.13;5.97;;;8.10;99.90;;;;;;5047259;28;20464;-77
2021/04/18 07:14:29;;;;;;;7.73;7.13;;;8.10;99.90;;;;;;5041516;28;20570;-76
2021/04/18 07:17:06;;;;;;;8.20;6.30;;;8.20;99.90;;;;;;5045732;28;20476;-76
2021/04/18 07:19:36;;;;;;;7.10;6.40;;;8.30;99.90;;;;;;5041202;28;20524;-76
2021/04/18 07:22:04;;;;;;;7.10;6.37;;;8.30;99.90;;;;;;5043534;28;20905;-76
2021/04/18 07:24:32;;;;;;;8.83;6.67;;;8.30;99.90;;;;;;5041277;28;20481;-76
2021/04/18 07:27:01;;;;;;;9.55;7.03;;;8.30;99.90;;;;;;5044784;28;20471;-75
2021/04/18 07:29:31;;;;;;;9.57;7.00;;;8.30;99.90;;;;;;5041869;28;20227;-77
2021/04/18 07:31:59;;;;;;;8.53;7.13;;;8.40;99.90;;;;;;5045645;28;20467;-76
2021/04/18 07:34:34;;;;;;;7.90;6.17;;;8.20;99.90;;;;;;5043534;28;21420;-76
2021/04/18 07:37:10;;;;;;;8.00;7.00;;;8.70;99.90;;;;;;5045112;28;20995;-77
2021/04/18 07:39:51;;;;;;;8.07;7.27;;;8.30;99.90;;;;;;5045324;28;20458;-78
2021/04/18 07:42:33;;;;;;;9.50;7.40;;;8.40;99.90;;;;;;5047943;28;20517;-78
2021/04/18 07:45:03;;;;;;;9.73;6.80;;;8.40;99.90;;;;;;5043661;28;20484;-77
2021/04/18 07:47:34;;;;;;;11.40;6.87;;;8.50;99.90;;;;;;5044343;28;20526;-79
2021/04/18 07:50:05;;;;;;;9.43;6.07;;;8.60;99.90;;;;;;5046080;28;20984;-79
2021/04/18 07:52:35;;;;;;;7.10;6.40;;;8.60;99.90;;;;;;5043921;28;21068;-79
2021/04/18 07:55:03;;;;;;;8.03;6.20;;;8.60;99.90;;;;;;5044154;28;20536;-78
2021/04/18 07:57:30;;;;;;;7.33;6.63;;;8.60;99.90;;;;;;5049144;28;20469;-79
2021/04/18 07:59:58;;;;;;;7.20;6.50;;;8.70;99.90;;;;;;5058888;28;20454;-78
2021/04/18 08:02:26;;;;;;;7.20;6.00;;;8.70;99.90;;;;;;5052524;28;20486;-79
2021/04/18 08:04:55;;;;;;;5.87;5.30;;;8.80;99.90;;;;;;5050095;28;20574;-76
2021/04/18 08:07:23;;;;;;;9.10;6.83;;;8.80;99.90;;;;;;5042791;28;20545;-77
2021/04/18 08:10:22;;;;;;;7.07;6.23;;;8.90;99.90;;;;;;5052199;28;20479;-77
2021/04/18 08:13:05;;;;;;;7.40;6.17;;;8.90;99.90;;;;;;5046024;28;20550;-78
2021/04/18 08:15:34;;;;;;;6.90;6.23;;;8.90;99.90;;;;;;5045976;28;20468;-77
2021/04/18 08:18:10;;;;;;;6.60;6.00;;;8.90;99.90;;;;;;5050147;28;20556;-75
2021/04/18 08:20:41;;;;;;;6.30;5.70;;;8.90;99.90;;;;;;5047272;28;20513;-78
2021/04/18 08:23:10;;;;;;;7.87;6.80;;;8.90;99.90;;;;;;5042815;28;20820;-78
2021/04/18 08:25:59;;;;;;;9.20;6.60;;;8.90;99.90;;;;;;5051525;28;20550;-75
2021/04/18 08:28:27;;;;;;;9.30;6.50;;;8.90;99.90;;;;;;5041330;28;20566;-78
2021/04/18 08:31:03;;;;;;;8.13;6.47;;;8.90;99.90;;;;;;5053600;28;20486;-78
2021/04/18 08:33:47;;;;;;;7.97;6.27;;;8.90;99.90;;;;;;5043901;28;20483;-75
2021/04/18 08:36:17;;;;;;;13.07;6.83;;;9.00;99.90;;;;;;5041394;28;20468;-76
2021/04/18 08:38:46;;;;;;;7.00;6.23;;;9.00;99.90;;;;;;5042779;28;20915;-76
2021/04/18 08:41:17;;;;;;;7.30;5.90;;;9.00;99.90;;;;;;5043551;28;20469;-76
2021/04/18 08:43:46;;;;;;;6.37;5.77;;;9.00;99.90;;;;;;5046604;28;20485;-75
2021/04/18 08:46:13;;;;;;;6.57;5.43;;;9.00;99.90;;;;;;5042773;28;20462;-76
2021/04/18 08:48:41;;;;;;;6.30;5.13;;;9.10;99.90;;;;;;5056897;28;20529;-75
2021/04/18 08:51:10;;;;;;;8.23;7.03;;;9.00;99.90;;;;;;5042592;28;20599;-73
2021/04/18 08:53:54;;;;;;;7.33;5.70;;;9.00;99.90;;;;;;5051773;28;21120;-76
2021/04/18 08:56:23;;;;;;;5.37;4.83;;;9.00;99.90;;;;;;5043517;28;20465;-75
2021/04/18 08:58:50;;;;;;;6.00;5.10;;;9.00;99.90;;;;;;5042604;28;20584;-75
2021/04/18 09:01:18;;;;;;;5.80;4.47;;;9.00;99.90;;;;;;5043401;28;20471;-76
2021/04/18 09:04:02;;;;;;;8.03;5.43;;;9.00;99.90;;;;;;5048739;28;20490;-76
2021/04/18 09:06:34;;;;;;;8.07;6.17;;;9.00;99.90;;;;;;5051464;28;20466;-75
2021/04/18 09:09:03;;;;;;;5.90;5.20;;;8.90;99.90;;;;;;5049657;28;21074;-80
2021/04/18 09:11:37;;;;;;;6.87;6.10;;;9.00;99.90;;;;;;5053834;28;20904;-78
2021/04/18 09:14:05;;;;;;;7.40;5.57;;;9.10;99.90;;;;;;5054398;28;20491;-78
2021/04/18 09:16:34;;;;;;;5.77;5.17;;;9.20;99.90;;;;;;5042884;28;20468;-79
2021/04/18 09:19:26;;;;;;;11.57;5.70;;;9.00;99.90;;;;;;5043065;28;20475;-78
2021/04/18 09:22:04;;;;;;;5.17;4.70;;;9.10;99.90;;;;;;5051214;28;20467;-76
2021/04/18 09:24:32;;;;;;;9.13;5.77;;;9.20;99.90;;;;;;5052360;28;20485;-78
2021/04/18 09:27:03;;;;;;;6.60;6.00;;;9.20;99.90;;;;;;5050046;28;20460;-79
2021/04/18 09:29:30;;;;;;;7.10;6.40;;;9.30;99.90;;;;;;5054232;28;20489;-79
2021/04/18 09:32:04;;;;;;;9.50;5.13;;;9.30;99.90;;;;;;5046307;28;20498;-79
2021/04/18 09:34:33;;;;;;;6.73;5.20;;;9.30;99.90;;;;;;5050727;28;20644;-78
2021/04/18 09:37:05;;;;;;;6.60;5.87;;;9.30;99.90;;;;;;5056171;28;20478;-79
2021/04/18 09:39:35;;;;;;;6.40;5.23;;;9.20;99.90;;;;;;5045368;28;20992;-78
2021/04/18 09:42:05;;;;;;;8.45;6.75;;;9.30;99.90;;;;;;5056890;28;20456;-78
2021/04/18 09:44:36;;;;;;;6.93;5.70;;;9.30;99.90;;;;;;5044655;28;20710;-77
2021/04/18 09:47:06;;;;;;;6.17;5.47;;;9.30;99.90;;;;;;5056779;28;20468;-80
2021/04/18 09:49:48;;;;;;;6.63;4.73;;;9.30;99.90;;;;;;5042683;28;21079;-78
2021/04/18 09:52:27;;;;;;;7.97;5.33;;;9.30;99.90;;;;;;5042092;28;20548;-79
2021/04/18 09:55:05;;;;;;;6.27;5.67;;;9.60;99.90;;;;;;5044172;28;21231;-78
2021/04/18 09:57:41;;;;;;;7.07;6.03;;;9.50;99.90;;;;;;5056043;28;20467;-79
2021/04/18 10:00:33;;;;;;;11.73;7.67;;;9.50;99.90;;;;;;5052823;28;20539;-78
2021/04/18 10:03:11;;;;;;;18.77;10.27;;;9.50;99.90;;;;;;5044453;28;20475;-80
2021/04/18 10:05:57;;;;;;;5.97;5.30;;;9.60;99.90;;;;;;5047558;28;20483;-79
2021/04/18 10:08:26;;;;;;;8.77;7.10;;;9.60;99.90;;;;;;5055861;28;20467;-78
2021/04/18 10:10:55;;;;;;;6.53;5.30;;;9.70;99.90;;;;;;5046045;28;20493;-80
2021/04/18 10:13:42;;;;;;;7.47;5.30;;;9.60;99.90;;;;;;5047885;28;21320;-79
2021/04/18 10:16:40;;;;;;;11.30;5.77;;;9.60;99.90;;;;;;5047359;28;20466;-78
2021/04/18 10:19:10;;;;;;;8.87;5.47;;;9.60;99.90;;;;;;5054816;28;20458;-81
2021/04/18 10:21:38;;;;;;;9.20;6.00;;;9.70;99.90;;;;;;5046789;28;20468;-78
2021/04/18 10:24:30;;;;;;;8.00;5.40;;;9.70;99.90;;;;;;5050746;28;20895;-80
2021/04/18 10:26:57;;;;;;;5.40;4.87;;;9.70;99.90;;;;;;5046573;28;20451;-80
2021/04/18 10:29:25;;;;;;;6.30;5.00;;;9.80;99.90;;;;;;5043124;28;20930;-79
2021/04/18 10:31:52;;;;;;;7.07;5.67;;;9.70;99.90;;;;;;5050727;28;20823;-80
2021/04/18 10:34:20;;;;;;;9.43;5.70;;;9.80;99.90;;;;;;5045668;28;20480;-79
2021/04/18 10:36:47;;;;;;;7.17;5.57;;;9.70;99.90;;;;;;5049671;28;20475;-79
2021/04/18 10:39:15;;;;;;;7.60;5.40;;;9.80;99.90;;;;;;5040648;28;20952;-80
2021/04/18 10:41:43;;;;;;;9.10;5.80;;;9.70;99.90;;;;;;5044988;28;21054;-79
2021/04/18 10:44:15;;;;;;;7.20;5.17;;;9.80;99.90;;;;;;5045602;28;20497;-78
2021/04/18 10:46:43;;;;;;;7.13;5.27;;;9.80;99.90;;;;;;5051977;28;21144;-78
2021/04/18 10:49:11;;;;;;;8.07;5.85;;;9.90;99.90;;;;;;5040740;28;20652;-78
2021/04/18 10:51:38;;;;;;;11.10;5.53;;;9.90;99.90;;;;;;5046511;28;20196;-80
2021/04/18 10:54:07;;;;;;;7.77;4.87;;;9.90;99.90;;;;;;5044724;28;20488;-78
2021/04/18 10:56:34;;;;;;;5.77;4.90;;;9.90;99.90;;;;;;5046918;28;20467;-79
2021/04/18 10:59:02;;;;;;;10.30;5.30;;;10.00;99.90;;;;;;5050126;28;20472;-79
2021/04/18 11:01:29;;;;;;;6.23;5.27;;;10.00;99.90;;;;;;5041553;28;20462;-80
2021/04/18 11:03:57;;;;;;;6.87;5.10;;;10.10;99.90;;;;;;5044992;28;20484;-79
2021/04/18 11:06:24;;;;;;;7.93;5.80;;;10.00;99.90;;;;;;5049666;28;20471;-80
2021/04/18 11:08:52;;;;;;;6.73;5.10;;;10.00;99.90;;;;;;5062216;28;21038;-78
2021/04/18 11:11:21;;;;;;;6.50;4.97;;;10.00;99.90;;;;;;5043163;28;20484;-77
2021/04/18 11:13:48;;;;;;;10.73;5.40;;;10.00;99.90;;;;;;5043708;28;20547;-79
2021/04/18 11:16:16;;;;;;;8.80;5.60;;;10.10;99.90;;;;;;5048250;28;20896;-78
2021/04/18 11:18:43;;;;;;;6.90;4.83;;;10.10;99.90;;;;;;5057283;28;20581;-79
2021/04/18 11:21:12;;;;;;;8.60;6.30;;;10.10;99.90;;;;;;5041330;28;20451;-81
2021/04/18 11:23:40;;;;;;;6.23;4.60;;;10.00;99.90;;;;;;5044835;28;20227;-80
2021/04/18 11:26:08;;;;;;;6.13;5.50;;;10.10;99.90;;;;;;5048839;28;20465;-79
2021/04/18 11:28:35;;;;;;;7.17;6.10;;;10.10;99.90;;;;;;5027131;28;20475;-79
2021/04/18 11:31:02;;;;;;;11.37;6.50;;;10.20;99.90;;;;;;5047584;28;20564;-80
2021/04/18 11:33:30;;;;;;;7.20;6.03;;;10.10;99.90;;;;;;5042776;28;20496;-80
2021/04/18 11:36:00;;;;;;;8.63;5.40;;;10.20;99.90;;;;;;5054571;28;20474;-79
2021/04/18 11:38:28;;;;;;;6.30;5.30;;;10.20;99.90;;;;;;5045711;28;20472;-79
2021/04/18 11:40:57;;;;;;;7.53;5.17;;;10.20;99.90;;;;;;5048597;28;20473;-79
2021/04/18 11:43:24;;;;;;;10.67;8.33;;;10.20;99.90;;;;;;5051988;28;20359;-80
2021/04/18 11:45:52;;;;;;;5.67;5.17;;;10.20;99.90;;;;;;5041583;28;20447;-79
2021/04/18 11:48:19;;;;;;;7.70;5.50;;;10.30;99.90;;;;;;5048182;28;20457;-79
2021/04/18 11:50:46;;;;;;;6.83;5.07;;;10.30;99.90;;;;;;5050370;28;20521;-80
2021/04/18 11:53:14;;;;;;;5.80;5.20;;;10.30;99.90;;;;;;5047294;28;20477;-78
2021/04/18 11:55:44;;;;;;;7.83;5.93;;;10.20;99.90;;;;;;5045384;28;20467;-76
2021/04/18 11:58:12;;;;;;;9.97;5.20;;;10.30;99.90;;;;;;5035744;28;20560;-77
2021/04/18 12:00:39;;;;;;;9.20;5.53;;;10.40;99.90;;;;;;5047029;28;20456;-80
2021/04/18 12:03:07;;;;;;;8.88;6.00;;;10.50;99.90;;;;;;5051456;28;21343;-80
2021/04/18 12:05:35;;;;;;;7.97;6.10;;;10.50;99.90;;;;;;5035595;28;20211;-80
2021/04/18 12:08:02;;;;;;;5.60;5.10;;;10.50;99.90;;;;;;5046412;28;20469;-79
2021/04/18 12:10:29;;;;;;;6.37;4.90;;;10.60;99.90;;;;;;5052754;28;20577;-79
2021/04/18 12:12:58;;;;;;;6.87;5.00;;;10.60;99.90;;;;;;5062441;28;20452;-80
2021/04/18 12:15:25;;;;;;;6.83;5.20;;;10.50;99.90;;;;;;5039478;28;20571;-78
2021/04/18 12:17:55;;;;;;;7.83;5.17;;;10.50;99.90;;;;;;5061990;28;20470;-81
2021/04/18 12:20:22;;;;;;;5.30;4.40;;;10.80;99.90;;;;;;5051668;28;20534;-79
2021/04/18 12:22:49;;;;;;;5.50;4.57;;;10.70;99.90;;;;;;5051838;28;20452;-79
2021/04/18 12:25:17;;;;;;;4.83;4.30;;;10.70;99.90;;;;;;5055198;28;20580;-80
2021/04/18 12:27:45;;;;;;;5.63;5.10;;;10.80;99.90;;;;;;5045068;28;20469;-80
2021/04/18 12:30:14;;;;;;;6.83;4.87;;;10.70;99.90;;;;;;5058503;28;20485;-80
2021/04/18 12:32:45;;;;;;;9.10;4.77;;;10.60;99.90;;;;;;5042626;28;20472;-82
2021/04/18 12:35:14;;;;;;;6.37;5.40;;;10.70;99.90;;;;;;5064267;28;20525;-81
2021/04/18 12:37:41;;;;;;;8.90;5.40;;;10.80;99.90;;;;;;5064720;28;20442;-80
2021/04/18 12:40:10;;;;;;;5.47;4.97;;;10.70;99.90;;;;;;5054779;28;20455;-80
2021/04/18 12:42:38;;;;;;;6.47;4.80;;;10.70;99.90;;;;;;5066504;28;20453;-80
2021/04/18 12:45:08;;;;;;;5.83;5.20;;;10.80;99.90;;;;;;5051861;28;20556;-79
2021/04/18 12:47:39;;;;;;;6.00;5.30;;;10.80;99.90;;;;;;5052367;28;20518;-79
2021/04/18 12:50:08;;;;;;;7.63;5.67;;;10.70;99.90;;;;;;5064433;28;20475;-81
2021/04/18 12:52:35;;;;;;;5.50;5.00;;;10.80;99.90;;;;;;5066458;28;20832;-79
2021/04/18 12:55:04;;;;;;;5.27;4.77;;;10.80;99.90;;;;;;5067186;28;20813;-81
2021/04/18 12:57:34;;;;;;;5.90;5.40;;;10.80;99.90;;;;;;5066177;28;20463;-81
2021/04/18 13:00:05;;;;;;;6.40;4.90;;;10.90;99.90;;;;;;5047540;28;20455;-81
2021/04/18 13:02:35;;;;;;;7.03;6.00;;;10.90;99.90;;;;;;5048247;28;20462;-80
2021/04/18 13:05:04;;;;;;;6.30;5.17;;;11.00;99.90;;;;;;5044174;28;20490;-82